createdAt,value
2023-04-17T00:03:42.891Z,16.99
2023-04-17T00:06:11.199Z,16.97
2023-04-17T00:08:39.490Z,16.96
2023-04-17T00:11:09.121Z,16.93
2023-04-17T00:13:37.624Z,16.87
2023-04-17T00:16:06.091Z,16.85
2023-04-17T00:18:34.494Z,16.84
2023-04-17T00:21:02.644Z,16.82
2023-04-17T00:23:31.623Z,16.81
2023-04-17T00:25:59.910Z,16.78
2023-04-17T00:28:28.294Z,16.74
2023-04-17T00:30:56.583Z,16.69
2023-04-17T00:33:25.241Z,16.64
2023-04-17T00:35:53.325Z,16.59
2023-04-17T00:38:21.900Z,16.56
2023-04-17T00:40:50.678Z,16.51
2023-04-17T00:43:18.890Z,16.48
2023-04-17T00:45:47.744Z,16.44
2023-04-17T00:48:18.692Z,16.37
2023-04-17T00:50:47.515Z,16.34
2023-04-17T00:53:16.115Z,16.34
2023-04-17T00:55:47.592Z,16.31
2023-04-17T00:58:15.937Z,16.27
2023-04-17T01:00:45.111Z,16.17
2023-04-17T01:03:13.563Z,16.14
2023-04-17T01:05:45.191Z,16.14
2023-04-17T01:08:14.888Z,16.13
2023-04-17T01:10:43.307Z,16.12
2023-04-17T01:13:11.575Z,16.09
2023-04-17T01:15:39.939Z,16.02
2023-04-17T01:18:08.245Z,15.99
2023-04-17T01:20:36.951Z,15.92
2023-04-17T01:23:05.313Z,15.90
2023-04-17T01:25:33.546Z,15.88
2023-04-17T01:28:01.836Z,15.87
2023-04-17T01:30:30.448Z,15.82
2023-04-17T01:32:58.710Z,15.76
2023-04-17T01:35:27.086Z,15.70
2023-04-17T01:37:56.296Z,15.67
2023-04-17T01:40:24.375Z,15.63
2023-04-17T01:42:52.496Z,15.57
2023-04-17T01:45:20.868Z,15.52
2023-04-17T01:47:49.015Z,15.49
2023-04-17T01:50:17.610Z,15.43
2023-04-17T01:52:46.987Z,15.37
2023-04-17T01:55:15.468Z,15.34
2023-04-17T01:57:43.689Z,15.34
2023-04-17T02:00:12.724Z,15.29
2023-04-17T02:02:41.252Z,15.28
2023-04-17T02:05:10.011Z,15.30
2023-04-17T02:07:38.150Z,15.26
2023-04-17T02:10:06.887Z,15.21
2023-04-17T02:12:35.688Z,15.24
2023-04-17T02:15:04.140Z,15.21
2023-04-17T02:17:32.323Z,15.18
2023-04-17T02:20:00.836Z,15.16
2023-04-17T02:22:28.988Z,15.15
2023-04-17T02:24:57.100Z,15.11
2023-04-17T02:27:25.890Z,15.05
2023-04-17T02:29:54.212Z,15.00
2023-04-17T02:32:22.512Z,15.02
2023-04-17T02:34:50.946Z,15.02
2023-04-17T02:37:19.172Z,14.97
2023-04-17T02:39:47.388Z,14.95
2023-04-17T02:42:15.677Z,14.95
2023-04-17T02:44:43.823Z,14.95
2023-04-17T02:47:12.677Z,14.94
2023-04-17T02:49:41.270Z,14.96
2023-04-17T02:52:09.459Z,14.95
2023-04-17T02:54:37.581Z,14.92
2023-04-17T02:57:06.644Z,14.91
2023-04-17T02:59:34.810Z,14.92
2023-04-17T03:02:03.960Z,14.92
2023-04-17T03:04:32.437Z,14.92
2023-04-17T03:07:01.137Z,14.90
2023-04-17T03:09:29.457Z,14.89
2023-04-17T03:11:58.188Z,14.90
2023-04-17T03:14:26.350Z,14.89
2023-04-17T03:16:55.053Z,14.87
2023-04-17T03:19:23.689Z,14.84
2023-04-17T03:21:51.868Z,14.80
2023-04-17T03:24:20.173Z,14.78
2023-04-17T03:26:48.416Z,14.79
2023-04-17T03:29:16.630Z,14.77
2023-04-17T03:31:45.005Z,14.76
2023-04-17T03:34:13.244Z,14.75
2023-04-17T03:36:41.531Z,14.73
2023-04-17T03:39:10.404Z,14.72
2023-04-17T03:41:39.059Z,14.69
2023-04-17T03:44:07.169Z,14.68
2023-04-17T03:46:36.028Z,14.65
2023-04-17T03:49:04.304Z,14.60
2023-04-17T03:51:32.487Z,14.54
2023-04-17T03:54:03.197Z,14.55
2023-04-17T03:56:31.396Z,14.52
2023-04-17T03:58:59.720Z,14.48
2023-04-17T04:01:28.301Z,14.48
2023-04-17T04:03:57.343Z,14.47
2023-04-17T04:06:25.916Z,14.46
2023-04-17T04:08:54.210Z,14.47
2023-04-17T04:11:22.693Z,14.47
2023-04-17T04:13:50.965Z,14.47
2023-04-17T04:16:19.412Z,14.45
2023-04-17T04:18:47.613Z,14.45
2023-04-17T04:21:15.841Z,14.43
2023-04-17T04:23:44.051Z,14.42
2023-04-17T04:26:12.326Z,14.41
2023-04-17T04:28:40.556Z,14.40
2023-04-17T04:31:09.617Z,14.38
2023-04-17T04:33:37.960Z,14.34
2023-04-17T04:36:06.547Z,14.30
2023-04-17T04:38:34.679Z,14.27
2023-04-17T04:41:03.017Z,14.27
2023-04-17T04:43:31.378Z,14.23
2023-04-17T04:46:00.423Z,14.18
2023-04-17T04:48:28.845Z,14.17
2023-04-17T04:50:57.103Z,14.16
2023-04-17T04:53:25.300Z,14.14
2023-04-17T04:55:53.540Z,14.11
2023-04-17T04:58:21.692Z,14.09
2023-04-17T05:00:50.447Z,14.08
2023-04-17T05:03:20.185Z,14.05
2023-04-17T05:05:49.586Z,14.00
2023-04-17T05:08:18.264Z,13.93
2023-04-17T05:10:46.534Z,13.86
2023-04-17T05:13:14.774Z,13.81
2023-04-17T05:15:43.122Z,13.76
2023-04-17T05:18:11.501Z,13.70
2023-04-17T05:20:39.638Z,13.67
2023-04-17T05:23:08.077Z,13.67
2023-04-17T05:25:36.725Z,13.62
2023-04-17T05:28:05.159Z,13.60
2023-04-17T05:30:33.230Z,13.60
2023-04-17T05:33:01.514Z,13.59
2023-04-17T05:35:29.898Z,13.54
2023-04-17T05:37:58.213Z,13.54
2023-04-17T05:40:26.667Z,13.55
2023-04-17T05:42:54.811Z,13.52
2023-04-17T05:45:25.021Z,13.53
2023-04-17T05:47:55.375Z,13.50
2023-04-17T05:50:23.559Z,13.48
2023-04-17T05:52:51.824Z,13.48
2023-04-17T05:55:20.329Z,13.48
2023-04-17T05:57:48.564Z,13.48
2023-04-17T06:00:17.019Z,13.48
2023-04-17T06:02:46.077Z,13.50
2023-04-17T06:05:15.261Z,13.51
2023-04-17T06:07:44.306Z,13.54
2023-04-17T06:10:13.280Z,13.58
2023-04-17T06:12:41.471Z,13.65
2023-04-17T06:15:10.078Z,13.73
2023-04-17T06:17:40.009Z,13.77
2023-04-17T06:20:09.772Z,13.81
2023-04-17T06:22:38.593Z,13.88
2023-04-17T06:25:08.352Z,13.95
2023-04-17T06:27:37.323Z,14.04
2023-04-17T06:30:07.219Z,14.13
2023-04-17T06:32:36.297Z,14.28
2023-04-17T06:35:05.067Z,14.44
2023-04-17T06:37:33.593Z,14.57
2023-04-17T06:40:01.948Z,14.69
2023-04-17T06:42:30.737Z,14.80
2023-04-17T06:44:59.131Z,14.89
2023-04-17T06:47:27.835Z,14.99
2023-04-17T06:49:56.640Z,15.10
2023-04-17T06:52:25.010Z,15.23
2023-04-17T06:54:56.471Z,15.37
2023-04-17T06:57:24.896Z,15.51
2023-04-17T06:59:53.235Z,15.68
2023-04-17T07:02:21.843Z,15.83
2023-04-17T07:04:50.553Z,15.99
2023-04-17T07:07:19.463Z,16.16
2023-04-17T07:09:47.897Z,16.34
2023-04-17T07:12:16.452Z,16.54
2023-04-17T07:14:44.741Z,16.73
2023-04-17T07:17:14.638Z,16.93
2023-04-17T07:19:42.941Z,17.14
2023-04-17T07:22:14.241Z,17.34
2023-04-17T07:24:42.974Z,17.54
2023-04-17T07:27:11.409Z,17.78
2023-04-17T07:29:39.909Z,18.01
2023-04-17T07:32:08.688Z,18.29
2023-04-17T07:34:36.954Z,18.54
2023-04-17T07:37:05.088Z,18.79
2023-04-17T07:39:33.427Z,19.02
2023-04-17T07:42:01.717Z,19.25
2023-04-17T07:44:30.469Z,19.49
2023-04-17T07:46:58.809Z,19.71
2023-04-17T07:49:28.149Z,19.93
2023-04-17T07:51:56.389Z,20.17
2023-04-17T07:54:24.847Z,20.43
2023-04-17T07:56:53.428Z,20.72
2023-04-17T07:59:21.775Z,21.01
2023-04-17T08:01:50.960Z,21.21
2023-04-17T08:04:19.465Z,21.34
2023-04-17T08:06:48.071Z,21.31
2023-04-17T08:09:16.695Z,21.21
2023-04-17T08:11:56.374Z,21.27
2023-04-17T08:14:26.638Z,21.45
2023-04-17T08:16:55.115Z,21.54
2023-04-17T08:19:23.531Z,21.70
2023-04-17T08:21:51.919Z,21.87
2023-04-17T08:24:20.257Z,22.12
2023-04-17T08:26:49.078Z,22.30
2023-04-17T08:29:17.841Z,22.50
2023-04-17T08:31:46.049Z,22.65
2023-04-17T08:34:15.560Z,22.77
2023-04-17T08:36:44.773Z,22.91
2023-04-17T08:39:13.390Z,22.98
2023-04-17T08:41:52.144Z,23.01
2023-04-17T08:44:21.064Z,22.94
2023-04-17T08:46:50.346Z,22.80
2023-04-17T08:49:19.289Z,22.73
2023-04-17T08:51:47.451Z,22.63
2023-04-17T08:54:15.751Z,22.37
2023-04-17T08:56:43.996Z,22.42
2023-04-17T08:59:12.629Z,22.66
2023-04-17T09:02:09.218Z,22.70
2023-04-17T09:04:43.288Z,22.65
2023-04-17T09:07:14.279Z,22.52
2023-04-17T09:09:56.762Z,22.39
2023-04-17T09:12:26.730Z,22.63
2023-04-17T09:14:55.550Z,22.80
2023-04-17T09:17:23.831Z,22.78
2023-04-17T09:20:04.684Z,22.81
2023-04-17T09:22:34.100Z,22.71
2023-04-17T09:25:02.865Z,22.76
2023-04-17T09:27:31.747Z,22.91
2023-04-17T09:30:01.023Z,23.03
2023-04-17T09:32:34.993Z,22.97
2023-04-17T09:35:04.397Z,23.18
2023-04-17T09:37:56.835Z,23.52
2023-04-17T09:40:26.507Z,23.53
2023-04-17T09:43:03.000Z,23.52
2023-04-17T09:45:33.592Z,23.58
2023-04-17T09:48:07.937Z,23.46
2023-04-17T09:50:38.644Z,23.39
2023-04-17T09:53:08.401Z,23.47
2023-04-17T09:55:38.435Z,23.57
2023-04-17T09:58:07.739Z,23.68
2023-04-17T10:00:37.708Z,23.86
2023-04-17T10:03:07.612Z,24.12
2023-04-17T10:05:36.829Z,24.30
2023-04-17T10:08:05.923Z,24.40
2023-04-17T10:10:35.080Z,24.52
2023-04-17T10:13:08.198Z,24.59
2023-04-17T10:15:36.641Z,24.65
2023-04-17T10:18:25.644Z,24.72
2023-04-17T10:20:56.453Z,24.80
2023-04-17T10:23:36.604Z,24.81
2023-04-17T10:26:23.159Z,24.63
2023-04-17T10:28:55.552Z,24.59
2023-04-17T10:32:02.328Z,24.45
2023-04-17T10:34:39.313Z,24.36
2023-04-17T10:37:08.711Z,24.50
2023-04-17T10:40:03.550Z,24.54
2023-04-17T10:42:31.724Z,24.40
2023-04-17T10:45:05.003Z,24.46
2023-04-17T10:47:34.888Z,24.57
2023-04-17T10:50:09.435Z,24.47
2023-04-17T10:52:40.850Z,24.30
2023-04-17T10:55:21.325Z,24.27
2023-04-17T10:57:58.799Z,24.66
2023-04-17T11:00:34.203Z,24.92
2023-04-17T11:03:07.463Z,24.80
2023-04-17T11:05:51.572Z,24.37
2023-04-17T11:08:20.600Z,24.25
2023-04-17T11:10:53.428Z,24.58
2023-04-17T11:13:21.904Z,24.91
2023-04-17T11:15:51.534Z,25.05
2023-04-17T11:18:21.329Z,24.90
2023-04-17T11:20:50.107Z,24.76
2023-04-17T11:23:18.264Z,24.33
2023-04-17T11:25:46.461Z,24.06
2023-04-17T11:28:14.801Z,24.08
2023-04-17T11:30:45.135Z,23.96
2023-04-17T11:33:13.856Z,23.82
2023-04-17T11:35:43.286Z,23.94
2023-04-17T11:38:16.060Z,24.00
2023-04-17T11:40:46.790Z,24.20
2023-04-17T11:43:15.990Z,24.25
2023-04-17T11:45:46.755Z,24.45
2023-04-17T11:48:16.656Z,24.69
2023-04-17T11:50:45.419Z,24.74
2023-04-17T11:53:16.442Z,24.83
2023-04-17T11:55:45.305Z,24.71
2023-04-17T11:58:15.410Z,24.57
2023-04-17T12:01:05.137Z,24.61
2023-04-17T12:03:35.715Z,24.44
2023-04-17T12:06:06.505Z,24.42
2023-04-17T12:08:52.904Z,24.30
2023-04-17T12:11:33.016Z,24.21
2023-04-17T12:14:02.757Z,24.33
2023-04-17T12:16:30.999Z,24.26
2023-04-17T12:18:59.504Z,24.12
2023-04-17T12:21:27.870Z,24.13
2023-04-17T12:23:56.089Z,24.02
2023-04-17T12:26:24.876Z,23.95
2023-04-17T12:28:53.034Z,23.96
2023-04-17T12:31:21.254Z,23.88
2023-04-17T12:33:49.460Z,23.85
2023-04-17T12:36:17.754Z,23.83
2023-04-17T12:38:46.170Z,23.84
2023-04-17T12:41:15.103Z,23.80
2023-04-17T12:43:43.649Z,23.76
2023-04-17T12:46:11.922Z,23.82
2023-04-17T12:48:41.039Z,23.65
2023-04-17T12:51:09.670Z,23.38
2023-04-17T12:53:38.267Z,23.35
2023-04-17T12:56:10.986Z,23.41
2023-04-17T12:58:45.788Z,23.57
2023-04-17T13:01:17.842Z,23.59
2023-04-17T13:03:49.365Z,23.50
2023-04-17T13:06:19.623Z,23.80
2023-04-17T13:08:48.028Z,24.03
2023-04-17T13:11:16.602Z,23.96
2023-04-17T13:13:45.513Z,23.93
2023-04-17T13:16:15.979Z,23.97
2023-04-17T13:18:45.762Z,24.20
2023-04-17T13:21:15.222Z,24.35
2023-04-17T13:23:43.533Z,24.56
2023-04-17T13:26:11.707Z,24.51
2023-04-17T13:28:40.015Z,24.15
2023-04-17T13:31:08.466Z,23.89
2023-04-17T13:33:36.925Z,23.78
2023-04-17T13:36:05.282Z,23.81
2023-04-17T13:38:33.601Z,23.65
2023-04-17T13:41:02.197Z,23.66
2023-04-17T13:43:31.444Z,23.54
2023-04-17T13:45:59.782Z,23.50
2023-04-17T13:48:28.280Z,23.36
2023-04-17T13:50:56.670Z,23.18
2023-04-17T13:53:25.003Z,23.04
2023-04-17T13:55:53.637Z,22.89
2023-04-17T13:58:21.825Z,22.76
2023-04-17T14:00:50.559Z,22.62
2023-04-17T14:03:23.350Z,22.66
2023-04-17T14:05:53.192Z,22.61
2023-04-17T14:08:22.428Z,22.53
2023-04-17T14:10:51.391Z,22.51
2023-04-17T14:13:19.984Z,22.25
2023-04-17T14:15:49.181Z,22.08
2023-04-17T14:18:18.463Z,22.16
2023-04-17T14:20:48.716Z,22.22
2023-04-17T14:23:17.062Z,22.10
2023-04-17T14:25:46.051Z,22.29
2023-04-17T14:28:14.315Z,22.54
2023-04-17T14:30:42.676Z,22.78
2023-04-17T14:33:11.160Z,23.03
2023-04-17T14:35:39.456Z,23.25
2023-04-17T14:38:08.423Z,22.83
2023-04-17T14:40:36.656Z,22.43
2023-04-17T14:43:05.775Z,22.43
2023-04-17T14:45:38.295Z,22.08
2023-04-17T14:48:07.232Z,21.94
2023-04-17T14:50:35.610Z,21.83
2023-04-17T14:53:04.148Z,21.64
2023-04-17T14:55:32.567Z,21.48
2023-04-17T14:58:00.688Z,21.59
2023-04-17T15:00:29.061Z,21.85
2023-04-17T15:02:58.583Z,22.08
2023-04-17T15:05:27.195Z,22.38
2023-04-17T15:07:55.396Z,22.51
2023-04-17T15:10:24.242Z,22.66
2023-04-17T15:12:52.455Z,22.39
2023-04-17T15:15:21.201Z,21.89
2023-04-17T15:17:49.460Z,21.73
2023-04-17T15:20:17.961Z,21.83
2023-04-17T15:22:46.466Z,21.88
2023-04-17T15:25:15.018Z,21.89
2023-04-17T15:27:43.271Z,22.07
2023-04-17T15:30:12.635Z,22.24
2023-04-17T15:32:40.745Z,22.36
2023-04-17T15:35:09.983Z,22.26
2023-04-17T15:37:40.081Z,22.18
2023-04-17T15:40:08.913Z,22.26
2023-04-17T15:42:37.192Z,22.21
2023-04-17T15:45:06.894Z,21.85
2023-04-17T15:47:35.344Z,21.61
2023-04-17T15:50:03.611Z,21.55
2023-04-17T15:52:32.214Z,21.67
2023-04-17T15:55:00.502Z,21.79
2023-04-17T15:57:28.668Z,21.90
2023-04-17T15:59:57.431Z,21.74
2023-04-17T16:02:26.387Z,21.66
2023-04-17T16:04:56.599Z,21.78
2023-04-17T16:07:26.966Z,21.80
2023-04-17T16:09:55.378Z,21.84
2023-04-17T16:12:23.704Z,21.92
2023-04-17T16:14:52.667Z,21.85
2023-04-17T16:17:23.971Z,21.48
2023-04-17T16:19:52.582Z,21.06
2023-04-17T16:22:32.462Z,20.75
2023-04-17T16:25:02.766Z,20.53
2023-04-17T16:27:32.736Z,20.46
2023-04-17T16:30:03.029Z,20.46
2023-04-17T16:32:38.009Z,20.43
2023-04-17T16:35:14.356Z,20.46
2023-04-17T16:37:44.857Z,20.35
2023-04-17T16:40:13.733Z,20.34
2023-04-17T16:42:42.623Z,20.41
2023-04-17T16:45:11.163Z,20.55
2023-04-17T16:47:41.361Z,20.44
2023-04-17T16:50:11.868Z,20.31
2023-04-17T16:52:40.445Z,20.34
2023-04-17T16:55:09.427Z,20.53
2023-04-17T16:57:38.705Z,20.69
2023-04-17T17:00:21.871Z,20.76
2023-04-17T17:02:50.811Z,20.88
2023-04-17T17:05:19.624Z,20.98
2023-04-17T17:07:48.585Z,20.86
2023-04-17T17:10:17.038Z,20.83
2023-04-17T17:12:45.450Z,20.83
2023-04-17T17:15:13.777Z,20.68
2023-04-17T17:17:42.198Z,20.63
2023-04-17T17:20:11.366Z,20.62
2023-04-17T17:22:39.736Z,20.65
2023-04-17T17:25:08.460Z,20.63
2023-04-17T17:27:36.749Z,20.67
2023-04-17T17:30:10.155Z,20.61
2023-04-17T17:32:38.550Z,20.56
2023-04-17T17:35:07.738Z,20.50
2023-04-17T17:37:36.079Z,20.40
2023-04-17T17:40:04.792Z,20.31
2023-04-17T17:42:32.976Z,20.21
2023-04-17T17:45:01.450Z,20.20
2023-04-17T17:47:29.728Z,20.19
2023-04-17T17:49:58.123Z,20.01
2023-04-17T17:52:26.472Z,19.90
2023-04-17T17:54:54.648Z,19.82
2023-04-17T17:57:24.272Z,19.69
2023-04-17T17:59:53.915Z,19.57
2023-04-17T18:02:24.422Z,19.36
2023-04-17T18:04:59.430Z,19.26
2023-04-17T18:07:28.805Z,19.23
2023-04-17T18:09:58.894Z,19.07
2023-04-17T18:12:27.612Z,19.06
2023-04-17T18:14:56.071Z,19.07
2023-04-17T18:17:25.546Z,19.01
2023-04-17T18:19:54.150Z,18.96
2023-04-17T18:22:22.354Z,18.94
2023-04-17T18:24:54.698Z,18.93
2023-04-17T18:27:26.156Z,18.90
2023-04-17T18:29:56.421Z,18.88
2023-04-17T18:32:25.141Z,18.89
2023-04-17T18:34:54.033Z,18.92
2023-04-17T18:37:23.672Z,18.90
2023-04-17T18:39:53.036Z,18.87
2023-04-17T18:42:23.173Z,18.82
2023-04-17T18:44:52.105Z,18.76
2023-04-17T18:47:21.276Z,18.67
2023-04-17T18:49:54.096Z,18.60
2023-04-17T18:52:23.018Z,18.48
2023-04-17T18:54:51.286Z,18.33
2023-04-17T18:57:19.981Z,18.16
2023-04-17T18:59:49.688Z,18.00
2023-04-17T19:02:18.686Z,17.88
2023-04-17T19:04:47.271Z,17.87
2023-04-17T19:07:15.756Z,17.87
2023-04-17T19:09:44.751Z,17.87
2023-04-17T19:12:13.196Z,17.83
2023-04-17T19:14:41.340Z,17.82
2023-04-17T19:17:09.498Z,17.86
2023-04-17T19:19:39.585Z,17.89
2023-04-17T19:22:07.684Z,17.90
2023-04-17T19:24:36.144Z,17.91
2023-04-17T19:27:04.620Z,17.86
2023-04-17T19:29:32.877Z,17.83
2023-04-17T19:32:01.360Z,17.78
2023-04-17T19:34:29.633Z,17.73
2023-04-17T19:36:57.886Z,17.73
2023-04-17T19:39:29.922Z,17.76
2023-04-17T19:41:58.274Z,17.71
2023-04-17T19:44:28.014Z,17.63
2023-04-17T19:46:57.082Z,17.61
2023-04-17T19:49:28.556Z,17.58
2023-04-17T19:51:56.886Z,17.56
2023-04-17T19:54:25.096Z,17.56
2023-04-17T19:56:53.178Z,17.58
2023-04-17T19:59:21.386Z,17.59
2023-04-17T20:01:51.263Z,17.57
2023-04-17T20:04:19.889Z,17.55
2023-04-17T20:06:48.102Z,17.52
2023-04-17T20:09:19.840Z,17.46
2023-04-17T20:11:48.378Z,17.46
2023-04-17T20:14:16.490Z,17.44
2023-04-17T20:16:46.685Z,17.38
2023-04-17T20:19:17.426Z,17.34
2023-04-17T20:21:45.969Z,17.30
2023-04-17T20:24:14.320Z,17.28
2023-04-17T20:26:43.560Z,17.31
2023-04-17T20:29:12.322Z,17.36
2023-04-17T20:31:40.777Z,17.40
2023-04-17T20:34:09.444Z,17.45
2023-04-17T20:36:38.088Z,17.46
2023-04-17T20:39:06.943Z,17.47
2023-04-17T20:41:36.067Z,17.47
2023-04-17T20:44:05.563Z,17.49
2023-04-17T20:46:33.993Z,17.48
2023-04-17T20:49:02.386Z,17.49
2023-04-17T20:51:30.906Z,17.48
2023-04-17T20:53:59.097Z,17.50
2023-04-17T20:56:27.463Z,17.48
2023-04-17T20:58:55.614Z,17.46
2023-04-17T21:01:26.041Z,17.47
2023-04-17T21:03:55.944Z,17.50
2023-04-17T21:06:24.157Z,17.53
2023-04-17T21:08:52.531Z,17.55
2023-04-17T21:11:20.671Z,17.55
2023-04-17T21:13:49.065Z,17.56
2023-04-17T21:16:17.415Z,17.59
2023-04-17T21:18:46.460Z,17.62
2023-04-17T21:21:14.968Z,17.64
2023-04-17T21:23:43.105Z,17.66
2023-04-17T21:26:11.729Z,17.64
2023-04-17T21:28:40.569Z,17.63
2023-04-17T21:31:08.743Z,17.63
2023-04-17T21:33:37.120Z,17.63
2023-04-17T21:36:06.662Z,17.61
2023-04-17T21:38:34.803Z,17.59
2023-04-17T21:41:03.190Z,17.58
2023-04-17T21:43:31.357Z,17.58
2023-04-17T21:45:59.560Z,17.58
2023-04-17T21:48:28.460Z,17.57
2023-04-17T21:51:01.841Z,17.56
2023-04-17T21:53:31.271Z,17.53
2023-04-17T21:55:59.477Z,17.51
2023-04-17T21:58:27.768Z,17.48
2023-04-17T22:00:56.486Z,17.44
2023-04-17T22:03:24.688Z,17.41
2023-04-17T22:05:52.914Z,17.40
2023-04-17T22:08:21.391Z,17.35
2023-04-17T22:10:49.828Z,17.33
2023-04-17T22:13:18.056Z,17.32
2023-04-17T22:15:48.382Z,17.28
2023-04-17T22:18:17.230Z,17.22
2023-04-17T22:20:45.682Z,17.18
2023-04-17T22:23:14.209Z,17.17
2023-04-17T22:25:42.511Z,17.16
2023-04-17T22:28:10.598Z,17.16
2023-04-17T22:30:39.197Z,17.12
2023-04-17T22:33:07.340Z,17.10
2023-04-17T22:35:35.713Z,17.06
2023-04-17T22:38:04.244Z,17.05
2023-04-17T22:40:32.403Z,17.04
2023-04-17T22:43:00.610Z,17.03
2023-04-17T22:45:29.378Z,17.01
2023-04-17T22:47:57.664Z,16.99
2023-04-17T22:50:26.829Z,16.96
2023-04-17T22:52:55.480Z,16.96
2023-04-17T22:55:23.979Z,16.93
2023-04-17T22:57:52.361Z,16.89
2023-04-17T23:00:20.826Z,16.85
2023-04-17T23:02:49.084Z,16.83
2023-04-17T23:05:17.786Z,16.80
2023-04-17T23:07:46.252Z,16.79
2023-04-17T23:10:14.473Z,16.77
2023-04-17T23:12:42.609Z,16.73
2023-04-17T23:15:11.291Z,16.71
2023-04-17T23:17:39.458Z,16.67
2023-04-17T23:20:07.960Z,16.63
2023-04-17T23:22:36.306Z,16.59
2023-04-17T23:25:04.798Z,16.58
2023-04-17T23:27:33.123Z,16.57
2023-04-17T23:30:01.334Z,16.54
2023-04-17T23:32:29.965Z,16.49
2023-04-17T23:34:58.595Z,16.45
2023-04-17T23:37:26.775Z,16.42
2023-04-17T23:39:55.303Z,16.41
2023-04-17T23:42:23.474Z,16.38
2023-04-17T23:44:52.226Z,16.36
2023-04-17T23:47:20.432Z,16.33
2023-04-17T23:49:48.790Z,16.29
2023-04-17T23:52:16.990Z,16.28
2023-04-17T23:54:45.212Z,16.27
2023-04-17T23:57:13.754Z,16.26
2023-04-17T23:59:42.121Z,16.22
